Elberfeld, Indiana
Current Conditions -  °F | °C
As of 9:54 AM on Wednesday 22 Oct 2014 (Local Time) from KEVV Reporting Station
Clear Clear  
Wind Chill: 51°   Ceiling: Unl
Heat Index: 51°   Visibility: 10mi
Dew Point: 41°   Wind: 8mph
Humidity: 68%   Direction: 50°NE
Pressure: 30.33"   Gusts: NA
Location:  38.16°N, 87.45°W
Report Text: KEVV 221454Z 05007KT 10SM CLR 11/05 A3033 RMK AO2 SLP270 T01060050 51016
Loading
Personal Weather Stations






























Interactive Weather Map
Tropical Storm Tracking
New forecast layout! Learn more

10-Day Weather Forecast

Advertisements
Track Severe Weather on mobile